createdAt,value
2019-04-21T00:00:54.191Z,11.70
2019-04-21T00:03:27.494Z,11.57
2019-04-21T00:06:15.671Z,11.87
2019-04-21T00:08:48.426Z,11.20
2019-04-21T00:11:15.259Z,11.63
2019-04-21T00:13:42.467Z,11.23
2019-04-21T00:16:05.127Z,11.80
2019-04-21T00:18:58.074Z,12.03
2019-04-21T00:21:30.179Z,11.27
2019-04-21T00:24:24.847Z,11.97
2019-04-21T00:27:02.488Z,11.33
2019-04-21T00:29:38.352Z,11.33
2019-04-21T00:32:03.021Z,12.70
2019-04-21T00:34:21.916Z,12.53
2019-04-21T00:37:05.014Z,13.17
2019-04-21T00:39:58.812Z,11.37
2019-04-21T00:42:14.158Z,11.20
2019-04-21T00:44:40.066Z,11.63
2019-04-21T00:47:25.502Z,11.93
2019-04-21T00:49:57.835Z,13.30
2019-04-21T00:52:48.833Z,12.57
2019-04-21T00:55:24.440Z,12.23
2019-04-21T00:57:45.775Z,12.20
2019-04-21T01:00:22.355Z,13.67
2019-04-21T01:02:56.546Z,13.30
2019-04-21T01:05:38.638Z,12.73
2019-04-21T01:08:13.341Z,12.37
2019-04-21T01:10:40.936Z,12.90
2019-04-21T01:13:21.599Z,12.77
2019-04-21T01:15:52.816Z,12.77
2019-04-21T01:18:29.513Z,12.47
2019-04-21T01:20:36.995Z,12.40
2019-04-21T01:23:06.469Z,12.70
2019-04-21T01:25:44.856Z,14.00
2019-04-21T01:28:27.176Z,12.93
2019-04-21T01:31:05.705Z,13.13
2019-04-21T01:33:38.023Z,13.10
2019-04-21T01:36:08.447Z,12.63
2019-04-21T01:41:17.969Z,13.03
2019-04-21T01:43:39.571Z,13.00
2019-04-21T01:46:14.157Z,12.13
2019-04-21T01:48:44.338Z,14.07
2019-04-21T01:51:17.110Z,13.57
2019-04-21T01:54:09.977Z,14.30
2019-04-21T01:56:57.029Z,14.27
2019-04-21T01:59:29.581Z,14.03
2019-04-21T02:02:05.274Z,14.90
2019-04-21T02:04:41.780Z,14.73
2019-04-21T02:07:13.001Z,13.87
2019-04-21T02:09:38.006Z,14.33
2019-04-21T02:12:17.169Z,13.47
2019-04-21T02:14:50.326Z,14.90
2019-04-21T02:17:16.425Z,14.90
2019-04-21T02:19:48.050Z,14.70
2019-04-21T02:22:28.716Z,14.40
2019-04-21T02:25:03.793Z,14.77
2019-04-21T02:27:31.079Z,15.47
2019-04-21T02:30:14.607Z,14.90
2019-04-21T02:32:48.376Z,15.27
2019-04-21T02:35:20.771Z,16.37
2019-04-21T02:37:55.653Z,16.87
2019-04-21T02:40:22.313Z,15.37
2019-04-21T02:42:56.101Z,15.23
2019-04-21T02:45:29.759Z,15.57
2019-04-21T02:50:31.755Z,15.80
2019-04-21T02:53:07.081Z,17.07
2019-04-21T02:55:31.285Z,16.17
2019-04-21T02:58:06.216Z,16.00
2019-04-21T03:00:56.973Z,16.23
2019-04-21T03:03:36.363Z,16.33
2019-04-21T03:06:15.384Z,16.37
2019-04-21T03:08:56.717Z,17.17
2019-04-21T03:11:14.629Z,16.90
2019-04-21T03:13:57.186Z,16.00
2019-04-21T03:16:26.548Z,17.60
2019-04-21T03:18:57.788Z,17.43
2019-04-21T03:21:29.064Z,18.23
2019-04-21T03:24:01.300Z,17.57
2019-04-21T03:26:36.628Z,16.40
2019-04-21T03:29:03.609Z,17.13
2019-04-21T03:32:05.563Z,17.43
2019-04-21T03:34:50.382Z,16.37
2019-04-21T03:39:11.874Z,18.30
2019-04-21T03:41:54.271Z,18.10
2019-04-21T03:44:24.677Z,18.57
2019-04-21T03:52:03.829Z,18.80
2019-04-21T03:54:39.179Z,18.10
2019-04-21T03:59:36.696Z,18.10
2019-04-21T04:02:39.026Z,17.90
2019-04-21T04:05:13.107Z,19.70
2019-04-21T04:10:22.903Z,19.83
2019-04-21T04:12:54.697Z,19.33
2019-04-21T04:15:32.335Z,18.93
2019-04-21T04:17:46.937Z,19.03
2019-04-21T04:22:56.246Z,19.83
2019-04-21T04:25:42.852Z,20.63
2019-04-21T04:33:12.426Z,20.00
2019-04-21T04:35:52.466Z,18.80
2019-04-21T04:38:20.124Z,18.87
2019-04-21T04:41:36.884Z,19.30
2019-04-21T04:43:44.755Z,19.30
2019-04-21T04:46:18.334Z,19.43
2019-04-21T04:48:51.379Z,19.10
2019-04-21T04:51:25.231Z,20.43
2019-04-21T04:53:46.898Z,20.20
2019-04-21T04:56:38.743Z,21.70
2019-04-21T05:01:32.732Z,19.63
2019-04-21T05:09:09.446Z,21.30
2019-04-21T05:11:46.401Z,19.73
2019-04-21T05:16:46.769Z,19.80
2019-04-21T05:19:20.183Z,19.77
2019-04-21T05:21:40.527Z,20.80
2019-04-21T05:24:02.638Z,20.23
2019-04-21T05:26:33.383Z,19.47
2019-04-21T05:29:01.894Z,19.70
2019-04-21T05:34:42.634Z,20.43
2019-04-21T05:37:33.221Z,20.47
2019-04-21T05:40:10.587Z,19.23
2019-04-21T05:42:44.440Z,20.10
2019-04-21T05:45:18.537Z,18.67
2019-04-21T05:48:17.820Z,20.90
2019-04-21T05:50:42.902Z,20.17
2019-04-21T05:53:20.011Z,20.50
2019-04-21T05:55:54.570Z,20.13
2019-04-21T05:58:14.963Z,20.00
2019-04-21T06:03:42.730Z,20.03
2019-04-21T06:06:10.064Z,20.80
2019-04-21T06:08:31.370Z,21.03
2019-04-21T06:11:07.368Z,20.70
2019-04-21T06:13:48.164Z,21.43
2019-04-21T06:16:30.270Z,20.60
2019-04-21T06:18:52.951Z,21.37
2019-04-21T06:21:16.469Z,22.00
2019-04-21T06:23:49.641Z,21.00
2019-04-21T06:26:51.810Z,21.50
2019-04-21T06:28:59.314Z,19.77
2019-04-21T06:34:04.657Z,19.97
2019-04-21T06:36:47.107Z,20.63
2019-04-21T06:39:42.682Z,20.17
2019-04-21T06:41:49.107Z,20.97
2019-04-21T06:44:22.437Z,19.80
2019-04-21T06:46:53.226Z,20.40
2019-04-21T06:49:27.473Z,19.87
2019-04-21T06:51:59.976Z,19.53
2019-04-21T06:54:35.632Z,19.00
2019-04-21T06:57:04.911Z,18.13
2019-04-21T06:59:31.912Z,17.63
2019-04-21T07:02:31.439Z,17.73
2019-04-21T07:04:47.009Z,16.23
2019-04-21T07:07:15.915Z,15.43
2019-04-21T07:09:52.573Z,15.40
2019-04-21T07:12:18.593Z,15.90
2019-04-21T07:14:54.709Z,15.43
2019-04-21T07:17:33.627Z,14.77
2019-04-21T07:20:00.135Z,13.83
2019-04-21T07:22:31.106Z,15.70
2019-04-21T07:25:03.014Z,14.97
2019-04-21T07:30:06.750Z,15.07
2019-04-21T07:32:33.418Z,15.10
2019-04-21T07:35:17.501Z,15.07
2019-04-21T07:37:41.384Z,14.43
2019-04-21T07:40:05.189Z,14.73
2019-04-21T07:42:38.513Z,14.50
2019-04-21T07:45:07.294Z,14.33
2019-04-21T07:47:51.785Z,14.60
2019-04-21T07:50:26.347Z,14.53
2019-04-21T07:53:24.348Z,13.80
2019-04-21T07:58:22.504Z,13.27
2019-04-21T08:00:56.381Z,14.17
2019-04-21T08:03:30.049Z,13.50
2019-04-21T08:05:59.083Z,13.70
2019-04-21T08:08:31.403Z,14.43
2019-04-21T08:11:07.349Z,14.27
2019-04-21T08:16:10.989Z,14.30
2019-04-21T08:18:39.717Z,14.53
2019-04-21T08:21:17.184Z,14.87
2019-04-21T08:23:41.604Z,13.90
2019-04-21T08:26:17.086Z,14.73
2019-04-21T08:28:46.708Z,14.40
2019-04-21T08:31:23.986Z,13.47
2019-04-21T08:36:28.413Z,14.33
2019-04-21T08:38:54.432Z,14.10
2019-04-21T08:41:25.059Z,13.47
2019-04-21T08:43:59.001Z,13.90
2019-04-21T08:46:31.191Z,13.37
2019-04-21T08:49:02.530Z,13.87
2019-04-21T08:51:33.320Z,13.60
2019-04-21T08:54:13.420Z,13.67
2019-04-21T08:57:06.147Z,12.87
2019-04-21T08:59:55.218Z,13.23
2019-04-21T09:02:40.289Z,13.80
2019-04-21T09:05:15.404Z,13.13
2019-04-21T09:07:49.554Z,13.67
2019-04-21T09:10:17.306Z,12.93
2019-04-21T09:12:53.570Z,12.97
2019-04-21T09:15:30.032Z,13.37
2019-04-21T09:17:48.375Z,12.33
2019-04-21T09:20:26.449Z,13.40
2019-04-21T09:23:02.221Z,13.43
2019-04-21T09:25:33.527Z,13.37
2019-04-21T09:28:01.281Z,13.17
2019-04-21T09:30:17.465Z,13.07
2019-04-21T09:32:49.422Z,13.03
2019-04-21T09:35:22.276Z,13.07
2019-04-21T09:38:26.237Z,13.17
2019-04-21T09:40:45.466Z,13.33
2019-04-21T09:43:13.368Z,12.53
2019-04-21T09:45:43.091Z,11.57
2019-04-21T09:48:18.595Z,12.87
2019-04-21T09:50:45.877Z,13.70
2019-04-21T09:53:25.173Z,13.33
2019-04-21T09:55:53.635Z,12.30
2019-04-21T09:58:26.345Z,11.77
2019-04-21T10:01:01.185Z,12.03
2019-04-21T10:03:23.120Z,11.90
2019-04-21T10:05:52.553Z,11.90
2019-04-21T10:08:22.917Z,11.83
2019-04-21T10:10:54.777Z,11.90
2019-04-21T10:13:25.334Z,11.97
2019-04-21T10:16:13.248Z,11.20
2019-04-21T10:18:43.801Z,11.20
2019-04-21T10:21:15.509Z,10.13
2019-04-21T10:23:45.669Z,10.70
2019-04-21T10:26:15.190Z,10.63
2019-04-21T10:28:44.506Z,11.70
2019-04-21T10:31:14.425Z,11.60
2019-04-21T10:33:44.275Z,10.93
2019-04-21T10:36:15.696Z,11.10
2019-04-21T10:38:51.287Z,10.83
2019-04-21T10:41:17.262Z,10.87
2019-04-21T10:43:47.104Z,10.10
2019-04-21T10:46:16.993Z,11.23
2019-04-21T10:48:48.742Z,10.70
2019-04-21T10:51:19.026Z,10.40
2019-04-21T10:53:52.351Z,9.33
2019-04-21T10:56:29.032Z,9.90
2019-04-21T10:58:54.040Z,9.70
2019-04-21T11:01:29.370Z,9.20
2019-04-21T11:04:07.518Z,9.27
2019-04-21T11:06:36.857Z,9.87
2019-04-21T11:09:10.704Z,9.63
2019-04-21T11:11:44.220Z,9.47
2019-04-21T11:14:11.644Z,10.13
2019-04-21T11:16:42.789Z,10.10
2019-04-21T11:19:12.085Z,9.60
2019-04-21T11:21:42.799Z,10.17
2019-04-21T11:24:12.399Z,9.80
2019-04-21T11:26:42.211Z,11.03
2019-04-21T11:29:12.852Z,10.97
2019-04-21T11:31:43.160Z,10.23
2019-04-21T11:34:13.484Z,9.67
2019-04-21T11:36:43.915Z,9.80
2019-04-21T11:39:35.069Z,10.30
2019-04-21T11:41:55.106Z,9.33
2019-04-21T11:44:24.860Z,9.70
2019-04-21T11:46:54.491Z,9.90
2019-04-21T11:49:27.647Z,9.97
2019-04-21T11:51:56.727Z,10.27
2019-04-21T11:54:26.801Z,9.67
2019-04-21T11:56:56.934Z,10.43
2019-04-21T11:59:27.882Z,9.20
2019-04-21T12:01:59.356Z,9.60
2019-04-21T12:04:29.551Z,10.07
2019-04-21T12:07:01.883Z,10.17
2019-04-21T12:09:35.889Z,9.30
2019-04-21T12:12:05.547Z,9.03
2019-04-21T12:14:36.260Z,10.50
2019-04-21T12:17:05.915Z,9.23
2019-04-21T12:19:36.626Z,9.33
2019-04-21T12:22:14.099Z,8.87
2019-04-21T12:24:38.383Z,10.23
2019-04-21T12:27:09.855Z,8.67
2019-04-21T12:29:41.877Z,9.73
2019-04-21T12:32:33.828Z,9.40
2019-04-21T12:35:03.874Z,8.37
2019-04-21T12:37:34.995Z,8.80
2019-04-21T12:40:06.351Z,8.67
2019-04-21T12:42:38.731Z,8.60
2019-04-21T12:45:09.648Z,7.40
2019-04-21T12:47:39.788Z,8.07
2019-04-21T12:50:11.240Z,7.57
2019-04-21T12:52:41.945Z,7.53
2019-04-21T12:55:13.541Z,7.33
2019-04-21T12:57:43.553Z,7.90
2019-04-21T13:00:15.895Z,7.50
2019-04-21T13:02:45.577Z,8.13
2019-04-21T13:05:15.821Z,8.30
2019-04-21T13:07:45.894Z,8.80
2019-04-21T13:10:18.048Z,8.33
2019-04-21T13:12:48.041Z,8.67
2019-04-21T13:15:17.945Z,8.20
2019-04-21T13:17:47.713Z,8.87
2019-04-21T13:20:17.231Z,7.60
2019-04-21T13:22:48.079Z,8.13
2019-04-21T13:25:19.993Z,8.20
2019-04-21T13:27:49.497Z,8.13
2019-04-21T13:30:20.145Z,7.00
2019-04-21T13:32:49.538Z,8.07
2019-04-21T13:35:19.103Z,7.87
2019-04-21T13:37:50.554Z,8.03
2019-04-21T13:40:49.389Z,8.40
2019-04-21T13:43:08.092Z,8.40
2019-04-21T13:45:37.386Z,7.97
2019-04-21T13:48:16.653Z,7.30
2019-04-21T13:50:47.096Z,7.10
2019-04-21T13:53:20.907Z,7.43
2019-04-21T13:55:50.826Z,7.43
2019-04-21T13:58:42.252Z,7.43
2019-04-21T14:01:11.839Z,7.50
2019-04-21T14:03:41.771Z,7.67
2019-04-21T14:06:12.139Z,7.40
2019-04-21T14:08:44.920Z,6.87
2019-04-21T14:11:15.505Z,6.43
2019-04-21T14:13:44.919Z,6.90
2019-04-21T14:16:24.837Z,6.37
2019-04-21T14:18:55.150Z,7.37
2019-04-21T14:21:25.100Z,7.17
2019-04-21T14:24:06.701Z,7.00
2019-04-21T14:26:36.343Z,7.00
2019-04-21T14:29:06.062Z,7.23
2019-04-21T14:31:35.393Z,7.40
2019-04-21T14:34:06.052Z,7.00
2019-04-21T14:36:36.933Z,6.40
2019-04-21T14:39:12.425Z,5.97
2019-04-21T14:41:42.285Z,7.00
2019-04-21T14:44:13.096Z,6.90
2019-04-21T14:47:09.309Z,6.53
2019-04-21T14:49:59.436Z,6.27
2019-04-21T14:52:32.997Z,7.03
2019-04-21T14:55:16.660Z,6.03
2019-04-21T14:57:47.305Z,6.57
2019-04-21T15:00:19.027Z,6.07
2019-04-21T15:02:49.625Z,6.13
2019-04-21T15:05:19.768Z,5.93
2019-04-21T15:07:49.290Z,6.30
2019-04-21T15:10:23.573Z,6.60
2019-04-21T15:12:49.891Z,5.90
2019-04-21T15:15:20.140Z,5.97
2019-04-21T15:17:49.695Z,5.37
2019-04-21T15:20:20.135Z,6.17
2019-04-21T15:22:50.459Z,5.90
2019-04-21T15:25:21.993Z,5.70
2019-04-21T15:27:52.756Z,5.83
2019-04-21T15:30:22.685Z,6.10
2019-04-21T15:32:52.783Z,5.83
2019-04-21T15:35:22.190Z,5.83
2019-04-21T15:37:58.036Z,6.73
2019-04-21T15:40:37.472Z,6.57
2019-04-21T15:42:58.596Z,6.07
2019-04-21T15:45:30.503Z,5.90
2019-04-21T15:48:00.218Z,6.03
2019-04-21T15:50:32.365Z,5.90
2019-04-21T15:53:05.617Z,5.87
2019-04-21T15:55:48.605Z,6.13
2019-04-21T15:58:40.916Z,5.53
2019-04-21T16:01:18.656Z,6.10
2019-04-21T16:03:49.004Z,6.40
2019-04-21T16:06:19.422Z,5.77
2019-04-21T16:08:52.332Z,5.80
2019-04-21T16:11:20.044Z,5.50
2019-04-21T16:13:49.829Z,5.80
2019-04-21T16:16:20.185Z,6.30
2019-04-21T16:18:50.104Z,5.50
2019-04-21T16:21:19.841Z,6.30
2019-04-21T16:23:50.639Z,6.17
2019-04-21T16:26:20.388Z,6.03
2019-04-21T16:28:50.858Z,6.00
2019-04-21T16:31:22.514Z,5.77
2019-04-21T16:33:52.028Z,5.40
2019-04-21T16:36:21.382Z,6.17
2019-04-21T16:38:51.446Z,5.97
2019-04-21T16:41:22.320Z,5.80
2019-04-21T16:43:53.152Z,5.70
2019-04-21T16:46:23.268Z,5.87
2019-04-21T16:48:55.971Z,6.03
2019-04-21T16:51:26.411Z,6.03
2019-04-21T16:54:08.177Z,6.17
2019-04-21T16:56:46.002Z,5.50
2019-04-21T16:59:32.871Z,6.20
2019-04-21T17:02:04.815Z,6.07
2019-04-21T17:04:34.251Z,6.07
2019-04-21T17:07:05.068Z,5.73
2019-04-21T17:09:34.761Z,6.37
2019-04-21T17:12:09.664Z,6.40
2019-04-21T17:14:53.123Z,6.40
2019-04-21T17:17:34.148Z,6.17
2019-04-21T17:19:45.601Z,6.87
2019-04-21T17:22:13.640Z,6.43
2019-04-21T17:24:46.386Z,6.27
2019-04-21T17:27:17.421Z,6.10
2019-04-21T17:29:48.510Z,6.00
2019-04-21T17:32:18.394Z,6.17
2019-04-21T17:34:50.062Z,6.23
2019-04-21T17:37:22.031Z,6.17
2019-04-21T17:39:52.577Z,5.97
2019-04-21T17:42:31.344Z,5.63
2019-04-21T17:44:55.224Z,5.90
2019-04-21T17:47:36.996Z,5.87
2019-04-21T17:50:15.690Z,5.97
2019-04-21T17:52:59.034Z,6.00
2019-04-21T17:55:29.807Z,5.83
2019-04-21T17:58:12.199Z,5.87
2019-04-21T18:03:35.315Z,6.43
2019-04-21T18:05:50.224Z,6.90
2019-04-21T18:08:33.915Z,7.33
2019-04-21T18:10:49.468Z,6.87
2019-04-21T18:13:17.270Z,8.23
2019-04-21T18:15:56.739Z,9.80
2019-04-21T18:18:14.514Z,17.90
2019-04-21T18:20:46.153Z,19.13
2019-04-21T18:23:46.059Z,18.83
2019-04-21T18:26:11.462Z,21.30
2019-04-21T18:28:35.168Z,25.07
2019-04-21T18:31:10.170Z,23.70
2019-04-21T18:33:45.744Z,23.73
2019-04-21T18:36:40.133Z,20.13
2019-04-21T18:39:46.108Z,22.30
2019-04-21T18:42:26.613Z,22.63
2019-04-21T18:48:02.459Z,18.17
2019-04-21T18:51:02.498Z,19.30
2019-04-21T18:53:46.546Z,18.40
2019-04-21T18:56:07.652Z,21.10
2019-04-21T18:58:33.920Z,15.77
2019-04-21T19:01:11.860Z,19.40
2019-04-21T19:03:41.052Z,22.83
2019-04-21T19:06:11.497Z,22.40
2019-04-21T19:08:59.749Z,24.27
2019-04-21T19:11:31.258Z,20.93
2019-04-21T19:17:11.010Z,20.33
2019-04-21T19:20:00.852Z,20.50
2019-04-21T19:22:29.398Z,22.27
2019-04-21T19:25:13.152Z,22.77
2019-04-21T19:27:45.589Z,24.73
2019-04-21T19:33:03.944Z,23.50
2019-04-21T19:35:19.254Z,24.07
2019-04-21T19:37:56.491Z,25.47
2019-04-21T19:40:38.676Z,26.30
2019-04-21T19:42:57.895Z,25.43
2019-04-21T19:45:35.493Z,24.17
2019-04-21T19:48:15.325Z,24.27
2019-04-21T19:50:48.454Z,24.47
2019-04-21T19:53:05.284Z,24.67
2019-04-21T19:55:27.862Z,24.67
2019-04-21T19:57:58.843Z,24.90
2019-04-21T20:00:30.557Z,24.27
2019-04-21T20:03:00.822Z,24.47
2019-04-21T20:05:40.968Z,25.63
2019-04-21T20:08:17.705Z,25.17
2019-04-21T20:10:55.301Z,23.80
2019-04-21T20:13:35.332Z,23.27
2019-04-21T20:15:56.681Z,24.43
2019-04-21T20:18:22.333Z,25.13
2019-04-21T20:20:41.314Z,25.07
2019-04-21T20:23:19.308Z,25.20
2019-04-21T20:25:48.805Z,25.60
2019-04-21T20:28:28.734Z,25.93
2019-04-21T20:31:03.834Z,25.13
2019-04-21T20:33:48.490Z,28.30
2019-04-21T20:36:12.026Z,45.30
2019-04-21T20:38:32.725Z,33.20
2019-04-21T20:40:59.195Z,53.33
2019-04-21T20:43:42.632Z,27.77
2019-04-21T20:46:10.305Z,26.57
2019-04-21T20:48:40.101Z,28.13
2019-04-21T20:51:18.345Z,29.23
2019-04-21T20:53:45.193Z,28.93
2019-04-21T20:56:11.413Z,30.63
2019-04-21T20:58:53.767Z,32.30
2019-04-21T21:01:39.308Z,31.00
2019-04-21T21:03:56.030Z,33.63
2019-04-21T21:06:26.178Z,33.20
2019-04-21T21:09:00.022Z,32.77
2019-04-21T21:11:35.296Z,31.67
2019-04-21T21:14:07.535Z,32.80
2019-04-21T21:16:44.893Z,31.20
2019-04-21T21:19:18.231Z,30.97
2019-04-21T21:21:34.126Z,30.60
2019-04-21T21:24:08.718Z,31.47
2019-04-21T21:26:47.233Z,32.73
2019-04-21T21:29:11.618Z,31.23
2019-04-21T21:31:49.140Z,31.53
2019-04-21T21:34:20.939Z,31.50
2019-04-21T21:36:51.080Z,29.43
2019-04-21T21:39:15.668Z,29.43
2019-04-21T21:41:40.587Z,28.40
2019-04-21T21:44:09.217Z,27.70
2019-04-21T21:46:50.964Z,28.60
2019-04-21T21:49:23.695Z,28.60
2019-04-21T21:51:51.973Z,27.73
2019-04-21T21:54:11.709Z,28.77
2019-04-21T21:56:42.565Z,28.90
2019-04-21T21:59:20.092Z,28.60
2019-04-21T22:01:51.922Z,29.30
2019-04-21T22:04:25.947Z,29.00
2019-04-21T22:06:55.447Z,30.33
2019-04-21T22:09:22.397Z,29.17
2019-04-21T22:11:56.250Z,29.47
2019-04-21T22:14:31.349Z,30.50
2019-04-21T22:17:10.686Z,30.17
2019-04-21T22:19:48.575Z,31.70
2019-04-21T22:22:14.148Z,33.20
2019-04-21T22:24:43.947Z,31.43
2019-04-21T22:26:59.214Z,31.17
2019-04-21T22:29:36.348Z,31.53
2019-04-21T22:32:08.846Z,32.27
2019-04-21T22:34:39.797Z,32.73
2019-04-21T22:37:21.219Z,32.10
2019-04-21T22:39:49.676Z,31.50
2019-04-21T22:42:15.360Z,31.20
2019-04-21T22:44:36.810Z,32.20
2019-04-21T22:47:14.131Z,30.53
2019-04-21T22:49:39.283Z,30.60
2019-04-21T22:52:15.218Z,29.87
2019-04-21T22:54:43.199Z,29.30
2019-04-21T22:57:16.626Z,29.57
2019-04-21T22:59:47.884Z,30.50
2019-04-21T23:02:22.587Z,30.43
2019-04-21T23:04:54.945Z,31.70
2019-04-21T23:07:24.276Z,29.57
2019-04-21T23:09:53.530Z,28.60
2019-04-21T23:12:28.262Z,28.30
2019-04-21T23:15:03.407Z,29.40
2019-04-21T23:17:48.268Z,27.90
2019-04-21T23:20:18.135Z,26.37
2019-04-21T23:22:55.329Z,27.03
2019-04-21T23:25:18.689Z,27.33
2019-04-21T23:27:47.982Z,25.73
2019-04-21T23:30:26.270Z,27.90
2019-04-21T23:32:42.207Z,27.13
2019-04-21T23:35:16.911Z,27.13
2019-04-21T23:37:44.903Z,27.00
2019-04-21T23:40:14.779Z,26.40
2019-04-21T23:42:42.412Z,26.83
2019-04-21T23:45:12.479Z,26.67
2019-04-21T23:47:53.548Z,28.47
2019-04-21T23:50:25.325Z,27.03
2019-04-21T23:52:45.658Z,27.03
2019-04-21T23:55:19.001Z,25.83
2019-04-21T23:57:50.183Z,25.97
